Logo
Newest Metar:
CYQR 171300Z 17009KT 15SM SKC M08/M10 A2981 RMK SLP133

Last 10 Metars:
CYQR 171200Z 21010KT 15SM SCT070 M06/M08 A2984 RMK AC4 SLP142
CYQR 171100Z 19007KT 15SM SKC M09/M10 A2986 RMK SLP150
CYQR 171000Z 22007KT 15SM SKC M07/M09 A2988 RMK SLP155
CYQR 170900Z 23007KT 15SM SKC M09/M11 A2990 RMK SLP160
CYQR 170800Z 25006KT 15SM SKC M08/M10 A2991 RMK SLP165
CYQR 170700Z 23009KT 15SM SKC M08/M10 A2993 RMK SLP172
CYQR 170600Z 24008KT 15SM SKC M07/M09 A2994 RMK SLP174
CYQR 170500Z 24010KT 15SM SKC M06/M09 A2993 RMK SLP170
CYQR 170400Z 26010KT 15SM FEW260 M05/M08 A2992 RMK CI2 SLP168
CYQR 170300Z 27012KT 15SM FEW260 M04/M07 A2992 RMK CI2 SLP168

Click here for Saskatoon (YXE) International Weather